RZO133 LPPT-LPLA
Flight info
| Callsign | RZO133 |
|---|---|
| Flight time | 2h 13m |
| Altitude | 36000 |
| Route | ZIFOG DCT GUNTI/M077F360 T25 LENSI DCT BAVAS/M067F280 H121 LM |
| Aircraft | A320/M-SDE3FGHIRWY/LB1 |
Departure
| Time | 2026-05-05 17:18 |
|---|---|
| Airport | Lisbon Humberto Delgado Airport (LPPT) |
Arrival
| Time | 2026-05-05 19:31 |
|---|---|
| Airport | Lajes Airport (LPLA) |
| Time | Latitude | Longitude | Altitude | Speed | Heading |
|---|---|---|---|---|---|
| 2026-05-05 16:54 | 38.76937 | -9.13065 | 337 ft | 0 kts | 78° |
| 2026-05-05 17:09 | 38.76936 | -9.13071 | 337 ft | 3 kts | 78° |
| 2026-05-05 17:09 | 38.76931 | -9.13099 | 332 ft | 3 kts | 78° |
| 2026-05-05 17:09 | 38.76929 | -9.13127 | 333 ft | 3 kts | 102° |
| 2026-05-05 17:09 | 38.76937 | -9.13150 | 333 ft | 3 kts | 145° |
| 2026-05-05 17:10 | 38.76952 | -9.13158 | 335 ft | 1 kts | 168° |
| 2026-05-05 17:10 | 38.76955 | -9.13159 | 335 ft | 0 kts | 168° |
| 2026-05-05 17:12 | 38.76951 | -9.13158 | 335 ft | 1 kts | 168° |
| 2026-05-05 17:12 | 38.76940 | -9.13155 | 333 ft | 4 kts | 168° |
| 2026-05-05 17:13 | 38.76899 | -9.13144 | 339 ft | 8 kts | 168° |
| 2026-05-05 17:13 | 38.76837 | -9.13126 | 336 ft | 9 kts | 167° |
| 2026-05-05 17:13 | 38.76789 | -9.13133 | 339 ft | 7 kts | 214° |
| 2026-05-05 17:13 | 38.76774 | -9.13199 | 340 ft | 9 kts | 258° |
| 2026-05-05 17:14 | 38.76760 | -9.13293 | 353 ft | 12 kts | 259° |
| 2026-05-05 17:14 | 38.76728 | -9.13396 | 347 ft | 15 kts | 227° |
| 2026-05-05 17:14 | 38.76656 | -9.13479 | 347 ft | 13 kts | 248° |
| 2026-05-05 17:14 | 38.76635 | -9.13604 | 345 ft | 15 kts | 258° |
| 2026-05-05 17:15 | 38.76612 | -9.13743 | 353 ft | 17 kts | 258° |
| 2026-05-05 17:15 | 38.76587 | -9.13896 | 345 ft | 18 kts | 258° |
| 2026-05-05 17:15 | 38.76561 | -9.14055 | 345 ft | 16 kts | 257° |
| 2026-05-05 17:15 | 38.76574 | -9.14180 | 337 ft | 16 kts | 292° |
| 2026-05-05 17:16 | 38.76602 | -9.14264 | 338 ft | 0 kts | 292° |
| 2026-05-05 17:16 | 38.76605 | -9.14272 | 338 ft | 3 kts | 292° |
| 2026-05-05 17:17 | 38.76622 | -9.14327 | 335 ft | 9 kts | 292° |
| 2026-05-05 17:17 | 38.76650 | -9.14380 | 335 ft | 6 kts | 338° |
| 2026-05-05 17:17 | 38.76686 | -9.14367 | 334 ft | 6 kts | 23° |
| 2026-05-05 17:17 | 38.76865 | -9.14273 | 348 ft | 61 kts | 22° |
| 2026-05-05 17:18 | 38.77451 | -9.13963 | 364 ft | 120 kts | 22° |
| 2026-05-05 17:18 | 38.78379 | -9.13465 | 370 ft | 167 kts | 24° |
| 2026-05-05 17:18 | 38.79466 | -9.12845 | 835 ft | 170 kts | 19° |
| 2026-05-05 17:18 | 38.80557 | -9.12245 | 1427 ft | 173 kts | 16° |
| 2026-05-05 17:19 | 38.81664 | -9.11668 | 2126 ft | 175 kts | 19° |
| 2026-05-05 17:19 | 38.82814 | -9.10879 | 2330 ft | 200 kts | 26° |
| 2026-05-05 17:19 | 38.84075 | -9.09902 | 2520 ft | 224 kts | 27° |
| 2026-05-05 17:19 | 38.85464 | -9.08808 | 2954 ft | 242 kts | 28° |
| 2026-05-05 17:20 | 38.86923 | -9.07649 | 3654 ft | 249 kts | 29° |
| 2026-05-05 17:20 | 38.88425 | -9.06482 | 4435 ft | 253 kts | 25° |
| 2026-05-05 17:20 | 38.90096 | -9.05837 | 5202 ft | 252 kts | 2° |
| 2026-05-05 17:20 | 38.91842 | -9.06010 | 5965 ft | 253 kts | 349° |
| 2026-05-05 17:21 | 38.93595 | -9.06440 | 6674 ft | 258 kts | 344° |
| 2026-05-05 17:21 | 38.95198 | -9.07490 | 7370 ft | 264 kts | 320° |
| 2026-05-05 17:21 | 38.96297 | -9.09380 | 8050 ft | 271 kts | 294° |
| 2026-05-05 17:22 | 38.96723 | -9.14261 | 9625 ft | 278 kts | 275° |
| 2026-05-05 17:22 | 38.96791 | -9.16763 | 10324 ft | 282 kts | 276° |
| 2026-05-05 17:22 | 38.96864 | -9.19381 | 10529 ft | 305 kts | 274° |
| 2026-05-05 17:22 | 38.96949 | -9.22189 | 10826 ft | 322 kts | 275° |
| 2026-05-05 17:23 | 38.97032 | -9.25084 | 11432 ft | 326 kts | 275° |
| 2026-05-05 17:23 | 38.97115 | -9.28008 | 12082 ft | 330 kts | 274° |
| 2026-05-05 17:23 | 38.97198 | -9.30932 | 12762 ft | 332 kts | 275° |
| 2026-05-05 17:23 | 38.97286 | -9.33949 | 13439 ft | 335 kts | 274° |
| 2026-05-05 17:24 | 38.97372 | -9.36920 | 14076 ft | 338 kts | 274° |
| 2026-05-05 17:24 | 38.97458 | -9.39944 | 14673 ft | 340 kts | 274° |
| 2026-05-05 17:24 | 38.97545 | -9.42996 | 15260 ft | 343 kts | 274° |
| 2026-05-05 17:24 | 38.97631 | -9.46064 | 15842 ft | 345 kts | 274° |
| 2026-05-05 17:25 | 38.97717 | -9.49163 | 16378 ft | 348 kts | 274° |
| 2026-05-05 17:25 | 38.97774 | -9.51225 | 16744 ft | 350 kts | 273° |
| 2026-05-05 17:25 | 38.97887 | -9.55428 | 17494 ft | 354 kts | 273° |
| 2026-05-05 17:25 | 38.97971 | -9.58600 | 18053 ft | 356 kts | 273° |
| 2026-05-05 17:26 | 38.98053 | -9.61792 | 18579 ft | 359 kts | 273° |
| 2026-05-05 17:26 | 38.98137 | -9.65011 | 19060 ft | 361 kts | 273° |
| 2026-05-05 17:26 | 38.98221 | -9.68244 | 19543 ft | 364 kts | 273° |
| 2026-05-05 17:26 | 38.98307 | -9.71509 | 20033 ft | 366 kts | 273° |
| 2026-05-05 17:27 | 38.98393 | -9.74784 | 20518 ft | 368 kts | 272° |
| 2026-05-05 17:27 | 38.98476 | -9.78086 | 20999 ft | 371 kts | 272° |
| 2026-05-05 17:27 | 38.98558 | -9.81410 | 21480 ft | 373 kts | 272° |
| 2026-05-05 17:27 | 38.98640 | -9.84759 | 21947 ft | 376 kts | 272° |
| 2026-05-05 17:28 | 38.98723 | -9.88139 | 22379 ft | 380 kts | 272° |
| 2026-05-05 17:28 | 38.98803 | -9.91540 | 22830 ft | 382 kts | 272° |
| 2026-05-05 17:28 | 38.98886 | -9.94965 | 23279 ft | 385 kts | 272° |
| 2026-05-05 17:28 | 38.98966 | -9.98415 | 23705 ft | 387 kts | 272° |
| 2026-05-05 17:29 | 38.99044 | -10.01880 | 24068 ft | 389 kts | 272° |
| 2026-05-05 17:29 | 38.99124 | -10.05371 | 24444 ft | 391 kts | 272° |
| 2026-05-05 17:29 | 38.99203 | -10.08869 | 24814 ft | 392 kts | 272° |
| 2026-05-05 17:29 | 38.99283 | -10.12381 | 25180 ft | 393 kts | 272° |
| 2026-05-05 17:30 | 38.99362 | -10.15899 | 25539 ft | 394 kts | 272° |
| 2026-05-05 17:30 | 38.99441 | -10.19424 | 25893 ft | 395 kts | 272° |
| 2026-05-05 17:30 | 38.99517 | -10.22916 | 26220 ft | 397 kts | 271° |
| 2026-05-05 17:30 | 38.99595 | -10.26509 | 26548 ft | 398 kts | 271° |
| 2026-05-05 17:31 | 38.99671 | -10.30073 | 26897 ft | 399 kts | 271° |
| 2026-05-05 17:31 | 38.99744 | -10.33643 | 27224 ft | 400 kts | 271° |
| 2026-05-05 17:31 | 38.99814 | -10.37226 | 27550 ft | 402 kts | 271° |
| 2026-05-05 17:31 | 38.99882 | -10.40775 | 27876 ft | 403 kts | 271° |
| 2026-05-05 17:32 | 38.99951 | -10.44372 | 28185 ft | 404 kts | 271° |
| 2026-05-05 17:32 | 39.00023 | -10.47993 | 28495 ft | 405 kts | 271° |
| 2026-05-05 17:32 | 39.00095 | -10.51612 | 28794 ft | 406 kts | 271° |
| 2026-05-05 17:32 | 39.00169 | -10.55250 | 29085 ft | 407 kts | 271° |
| 2026-05-05 17:33 | 39.00239 | -10.58889 | 29364 ft | 408 kts | 271° |
| 2026-05-05 17:33 | 39.00305 | -10.62551 | 29624 ft | 410 kts | 271° |
| 2026-05-05 17:33 | 39.00368 | -10.66217 | 29884 ft | 411 kts | 271° |
| 2026-05-05 17:33 | 39.00431 | -10.69893 | 30138 ft | 412 kts | 271° |
| 2026-05-05 17:34 | 39.00493 | -10.73581 | 30358 ft | 413 kts | 271° |
| 2026-05-05 17:34 | 39.00553 | -10.77278 | 30574 ft | 414 kts | 271° |
| 2026-05-05 17:34 | 39.00612 | -10.80977 | 30857 ft | 412 kts | 271° |
| 2026-05-05 17:34 | 39.00671 | -10.84652 | 31177 ft | 410 kts | 270° |
| 2026-05-05 17:35 | 39.00732 | -10.88306 | 31505 ft | 408 kts | 270° |
| 2026-05-05 17:35 | 39.00794 | -10.91945 | 31821 ft | 406 kts | 270° |
| 2026-05-05 17:35 | 39.00852 | -10.95563 | 32131 ft | 404 kts | 270° |
| 2026-05-05 17:35 | 39.00908 | -10.99175 | 32390 ft | 404 kts | 270° |
| 2026-05-05 17:36 | 39.00959 | -11.02782 | 32679 ft | 403 kts | 270° |
| 2026-05-05 17:36 | 39.01010 | -11.06372 | 32973 ft | 401 kts | 270° |
| 2026-05-05 17:36 | 39.01062 | -11.09943 | 33273 ft | 399 kts | 270° |
| 2026-05-05 17:36 | 39.01112 | -11.13510 | 33580 ft | 397 kts | 270° |
| 2026-05-05 17:37 | 39.01156 | -11.17051 | 33882 ft | 396 kts | 270° |
| 2026-05-05 17:37 | 39.01184 | -11.19393 | 34083 ft | 394 kts | 270° |
| 2026-05-05 17:37 | 39.01243 | -11.24053 | 34411 ft | 393 kts | 270° |
| 2026-05-05 17:37 | 39.01288 | -11.27561 | 34604 ft | 393 kts | 270° |
| 2026-05-05 17:38 | 39.01332 | -11.31075 | 34781 ft | 393 kts | 270° |
| 2026-05-05 17:38 | 39.01373 | -11.34592 | 34924 ft | 394 kts | 270° |
| 2026-05-05 17:38 | 39.01413 | -11.38116 | 35067 ft | 395 kts | 270° |
| 2026-05-05 17:38 | 39.01455 | -11.41651 | 35219 ft | 395 kts | 270° |
| 2026-05-05 17:39 | 39.01494 | -11.45183 | 35383 ft | 396 kts | 270° |
| 2026-05-05 17:39 | 39.01535 | -11.48724 | 35512 ft | 397 kts | 270° |
| 2026-05-05 17:39 | 39.01576 | -11.52277 | 35636 ft | 398 kts | 270° |
| 2026-05-05 17:39 | 39.01612 | -11.55832 | 35761 ft | 398 kts | 270° |
| 2026-05-05 17:40 | 39.01644 | -11.59397 | 35889 ft | 399 kts | 270° |
| 2026-05-05 17:40 | 39.01675 | -11.62970 | 36046 ft | 399 kts | 270° |
| 2026-05-05 17:40 | 39.01708 | -11.66539 | 36134 ft | 399 kts | 270° |
| 2026-05-05 17:41 | 39.01772 | -11.73670 | 36142 ft | 399 kts | 270° |
| 2026-05-05 17:41 | 39.01828 | -11.80803 | 36151 ft | 399 kts | 270° |
| 2026-05-05 17:42 | 39.01884 | -11.87893 | 36160 ft | 399 kts | 270° |
| 2026-05-05 17:42 | 39.01939 | -11.95029 | 36154 ft | 398 kts | 270° |
| 2026-05-05 17:43 | 39.01980 | -12.02156 | 36157 ft | 399 kts | 270° |
| 2026-05-05 17:43 | 39.02021 | -12.09294 | 36157 ft | 399 kts | 270° |
| 2026-05-05 17:44 | 39.02062 | -12.16442 | 36157 ft | 400 kts | 270° |
| 2026-05-05 17:44 | 39.02095 | -12.23600 | 36161 ft | 400 kts | 269° |
| 2026-05-05 17:45 | 39.02120 | -12.30715 | 36164 ft | 401 kts | 269° |
| 2026-05-05 17:45 | 39.02140 | -12.37875 | 36184 ft | 401 kts | 269° |
| 2026-05-05 17:46 | 39.02161 | -12.45041 | 36168 ft | 401 kts | 269° |
| 2026-05-05 17:46 | 39.02178 | -12.52218 | 36168 ft | 402 kts | 269° |
| 2026-05-05 17:47 | 39.02190 | -12.59403 | 36170 ft | 402 kts | 269° |
| 2026-05-05 17:47 | 39.02196 | -12.66595 | 36178 ft | 402 kts | 269° |
| 2026-05-05 17:48 | 39.02192 | -12.73782 | 36178 ft | 402 kts | 269° |
| 2026-05-05 17:48 | 39.02192 | -12.80971 | 36181 ft | 402 kts | 269° |
| 2026-05-05 17:49 | 39.02190 | -12.88166 | 36180 ft | 403 kts | 269° |
| 2026-05-05 17:49 | 39.02178 | -12.95373 | 36179 ft | 403 kts | 269° |
| 2026-05-05 17:50 | 39.02163 | -13.01364 | 36180 ft | 403 kts | 269° |
| 2026-05-05 17:50 | 39.02146 | -13.08572 | 36184 ft | 403 kts | 269° |
| 2026-05-05 17:51 | 39.02124 | -13.15787 | 36181 ft | 403 kts | 269° |
| 2026-05-05 17:51 | 39.02096 | -13.23003 | 36180 ft | 404 kts | 269° |
| 2026-05-05 17:52 | 39.02062 | -13.30236 | 36181 ft | 404 kts | 269° |
| 2026-05-05 17:52 | 39.02023 | -13.37469 | 36187 ft | 405 kts | 269° |
| 2026-05-05 17:53 | 39.01980 | -13.44708 | 36188 ft | 405 kts | 269° |
| 2026-05-05 17:53 | 39.01934 | -13.51954 | 36195 ft | 406 kts | 269° |
| 2026-05-05 17:54 | 39.01880 | -13.59217 | 36177 ft | 407 kts | 269° |
| 2026-05-05 17:54 | 39.01819 | -13.66505 | 36178 ft | 408 kts | 269° |
| 2026-05-05 17:55 | 39.01763 | -13.73795 | 36184 ft | 408 kts | 269° |
| 2026-05-05 17:55 | 39.01700 | -13.81108 | 36186 ft | 409 kts | 269° |
| 2026-05-05 17:56 | 39.01631 | -13.88368 | 36180 ft | 409 kts | 269° |
| 2026-05-05 17:56 | 39.01561 | -13.95696 | 36189 ft | 410 kts | 269° |
| 2026-05-05 17:57 | 39.01478 | -14.03022 | 36206 ft | 410 kts | 269° |
| 2026-05-05 17:57 | 39.01396 | -14.10364 | 36201 ft | 410 kts | 269° |
| 2026-05-05 17:58 | 39.01306 | -14.17698 | 36208 ft | 410 kts | 269° |
| 2026-05-05 17:58 | 39.01215 | -14.25026 | 36193 ft | 410 kts | 269° |
| 2026-05-05 17:59 | 39.01119 | -14.32320 | 36205 ft | 411 kts | 269° |
| 2026-05-05 17:59 | 39.01015 | -14.39672 | 36207 ft | 411 kts | 269° |
| 2026-05-05 18:00 | 39.00906 | -14.47021 | 36198 ft | 411 kts | 269° |
| 2026-05-05 18:00 | 39.00795 | -14.54369 | 36202 ft | 411 kts | 269° |
| 2026-05-05 18:01 | 39.00683 | -14.61723 | 36198 ft | 412 kts | 269° |
| 2026-05-05 18:01 | 39.00565 | -14.69091 | 36199 ft | 413 kts | 269° |
| 2026-05-05 18:02 | 39.00435 | -14.76470 | 36200 ft | 413 kts | 269° |
| 2026-05-05 18:02 | 39.00301 | -14.83857 | 36214 ft | 413 kts | 269° |
| 2026-05-05 18:03 | 39.00166 | -14.91247 | 36207 ft | 414 kts | 269° |
| 2026-05-05 18:03 | 39.00028 | -14.98639 | 36199 ft | 414 kts | 269° |
| 2026-05-05 18:04 | 39.00004 | -15.05966 | 36200 ft | 414 kts | 271° |
| 2026-05-05 18:04 | 39.00214 | -15.13386 | 36210 ft | 415 kts | 272° |
| 2026-05-05 18:05 | 39.00433 | -15.20799 | 36208 ft | 415 kts | 272° |
| 2026-05-05 18:05 | 39.00587 | -15.28216 | 36221 ft | 415 kts | 271° |
| 2026-05-05 18:06 | 39.00713 | -15.35638 | 36213 ft | 415 kts | 271° |
| 2026-05-05 18:06 | 39.00841 | -15.43065 | 36221 ft | 416 kts | 271° |
| 2026-05-05 18:07 | 39.00974 | -15.50499 | 36227 ft | 416 kts | 271° |
| 2026-05-05 18:07 | 39.01096 | -15.57949 | 36217 ft | 417 kts | 271° |
| 2026-05-05 18:08 | 39.01208 | -15.65350 | 36215 ft | 417 kts | 271° |
| 2026-05-05 18:08 | 39.01323 | -15.72802 | 36220 ft | 417 kts | 271° |
| 2026-05-05 18:09 | 39.01438 | -15.80267 | 36216 ft | 418 kts | 271° |
| 2026-05-05 18:09 | 39.01542 | -15.87735 | 36219 ft | 418 kts | 271° |
| 2026-05-05 18:10 | 39.01648 | -15.95213 | 36227 ft | 418 kts | 271° |
| 2026-05-05 18:10 | 39.01748 | -16.02688 | 36223 ft | 418 kts | 272° |
| 2026-05-05 18:11 | 39.01838 | -16.10173 | 36222 ft | 419 kts | 271° |
| 2026-05-05 18:11 | 39.01921 | -16.17673 | 36223 ft | 419 kts | 271° |
| 2026-05-05 18:12 | 39.02012 | -16.25176 | 36229 ft | 420 kts | 271° |
| 2026-05-05 18:12 | 39.02086 | -16.32679 | 36236 ft | 420 kts | 271° |
| 2026-05-05 18:13 | 39.02148 | -16.40191 | 36220 ft | 420 kts | 272° |
| 2026-05-05 18:13 | 39.02219 | -16.47710 | 36222 ft | 421 kts | 272° |
| 2026-05-05 18:14 | 39.02289 | -16.55235 | 36231 ft | 421 kts | 272° |
| 2026-05-05 18:14 | 39.02344 | -16.62764 | 36238 ft | 421 kts | 272° |
| 2026-05-05 18:15 | 39.02396 | -16.70297 | 36228 ft | 421 kts | 272° |
| 2026-05-05 18:15 | 39.02449 | -16.77789 | 36234 ft | 422 kts | 272° |
| 2026-05-05 18:16 | 39.02491 | -16.85346 | 36242 ft | 423 kts | 272° |
| 2026-05-05 18:16 | 39.02528 | -16.92910 | 36240 ft | 423 kts | 272° |
| 2026-05-05 18:17 | 39.02570 | -17.00421 | 36241 ft | 423 kts | 272° |
| 2026-05-05 18:17 | 39.02598 | -17.08000 | 36230 ft | 424 kts | 272° |
| 2026-05-05 18:18 | 39.02617 | -17.15578 | 36237 ft | 424 kts | 272° |
| 2026-05-05 18:18 | 39.02638 | -17.23164 | 36244 ft | 424 kts | 272° |
| 2026-05-05 18:19 | 39.02651 | -17.30757 | 36246 ft | 425 kts | 272° |
| 2026-05-05 18:19 | 39.02655 | -17.38353 | 36251 ft | 425 kts | 272° |
| 2026-05-05 18:20 | 39.02666 | -17.45953 | 36239 ft | 425 kts | 273° |
| 2026-05-05 18:20 | 39.02675 | -17.53560 | 36246 ft | 426 kts | 273° |
| 2026-05-05 18:21 | 39.02671 | -17.61173 | 36245 ft | 426 kts | 273° |
| 2026-05-05 18:21 | 39.02652 | -17.68794 | 36251 ft | 426 kts | 273° |
| 2026-05-05 18:22 | 39.02634 | -17.76416 | 36234 ft | 426 kts | 274° |
| 2026-05-05 18:22 | 39.02618 | -17.84048 | 36239 ft | 427 kts | 274° |
| 2026-05-05 18:23 | 39.02598 | -17.91687 | 36246 ft | 428 kts | 274° |
| 2026-05-05 18:23 | 39.02565 | -17.99335 | 36251 ft | 428 kts | 274° |
| 2026-05-05 18:24 | 39.02524 | -18.06937 | 36260 ft | 428 kts | 274° |
| 2026-05-05 18:24 | 39.02487 | -18.14595 | 36244 ft | 429 kts | 275° |
| 2026-05-05 18:25 | 39.02445 | -18.22264 | 36252 ft | 430 kts | 275° |
| 2026-05-05 18:25 | 39.02405 | -18.29956 | 36265 ft | 430 kts | 275° |
| 2026-05-05 18:26 | 39.02349 | -18.37608 | 36274 ft | 431 kts | 275° |
| 2026-05-05 18:26 | 39.02281 | -18.45315 | 36256 ft | 431 kts | 276° |
| 2026-05-05 18:27 | 39.02216 | -18.53016 | 36259 ft | 431 kts | 276° |
| 2026-05-05 18:27 | 39.02152 | -18.60718 | 36264 ft | 431 kts | 276° |
| 2026-05-05 18:28 | 39.02034 | -18.72282 | 36272 ft | 431 kts | 276° |
| 2026-05-05 18:28 | 39.01950 | -18.79953 | 36274 ft | 432 kts | 276° |
| 2026-05-05 18:29 | 39.01857 | -18.87662 | 36277 ft | 431 kts | 276° |
| 2026-05-05 18:29 | 39.01765 | -18.95373 | 36277 ft | 431 kts | 276° |
| 2026-05-05 18:30 | 39.01671 | -19.03086 | 36275 ft | 431 kts | 276° |
| 2026-05-05 18:30 | 39.01572 | -19.10794 | 36275 ft | 431 kts | 276° |
| 2026-05-05 18:31 | 39.01462 | -19.18502 | 36255 ft | 432 kts | 277° |
| 2026-05-05 18:31 | 39.01344 | -19.26229 | 36268 ft | 432 kts | 277° |
| 2026-05-05 18:32 | 39.01226 | -19.33954 | 36269 ft | 432 kts | 277° |
| 2026-05-05 18:32 | 39.01106 | -19.41688 | 36276 ft | 432 kts | 277° |
| 2026-05-05 18:33 | 39.00978 | -19.49420 | 36255 ft | 432 kts | 277° |
| 2026-05-05 18:33 | 39.00844 | -19.57147 | 36267 ft | 432 kts | 277° |
| 2026-05-05 18:34 | 39.00698 | -19.64867 | 36278 ft | 432 kts | 277° |
| 2026-05-05 18:34 | 39.00553 | -19.72595 | 36275 ft | 432 kts | 277° |
| 2026-05-05 18:35 | 39.00404 | -19.80312 | 36251 ft | 432 kts | 277° |
| 2026-05-05 18:35 | 39.00248 | -19.87989 | 36272 ft | 432 kts | 277° |
| 2026-05-05 18:36 | 39.00084 | -19.95766 | 36286 ft | 432 kts | 277° |
| 2026-05-05 18:36 | 38.99956 | -20.03432 | 36294 ft | 431 kts | 278° |
| 2026-05-05 18:37 | 39.00065 | -20.11036 | 36300 ft | 428 kts | 280° |
| 2026-05-05 18:37 | 39.00252 | -20.18686 | 36288 ft | 428 kts | 280° |
| 2026-05-05 18:38 | 39.00395 | -20.26338 | 36305 ft | 428 kts | 279° |
| 2026-05-05 18:38 | 39.00497 | -20.33994 | 36310 ft | 428 kts | 279° |
| 2026-05-05 18:39 | 39.00576 | -20.41654 | 36309 ft | 428 kts | 279° |
| 2026-05-05 18:39 | 39.00661 | -20.49296 | 36271 ft | 427 kts | 279° |
| 2026-05-05 18:40 | 39.00751 | -20.56929 | 36299 ft | 426 kts | 279° |
| 2026-05-05 18:40 | 39.00837 | -20.64544 | 36304 ft | 426 kts | 279° |
| 2026-05-05 18:41 | 39.00913 | -20.72164 | 36307 ft | 426 kts | 279° |
| 2026-05-05 18:41 | 39.00980 | -20.79718 | 36315 ft | 426 kts | 279° |
| 2026-05-05 18:42 | 39.01047 | -20.87322 | 36308 ft | 425 kts | 278° |
| 2026-05-05 18:42 | 39.01108 | -20.94907 | 36319 ft | 424 kts | 278° |
| 2026-05-05 18:43 | 39.01166 | -21.02492 | 36328 ft | 424 kts | 278° |
| 2026-05-05 18:43 | 39.01210 | -21.08840 | 36329 ft | 423 kts | 278° |
| 2026-05-05 18:44 | 39.01254 | -21.16357 | 36308 ft | 423 kts | 278° |
| 2026-05-05 18:44 | 39.01292 | -21.23914 | 36319 ft | 422 kts | 278° |
| 2026-05-05 18:45 | 39.01324 | -21.31461 | 36324 ft | 422 kts | 278° |
| 2026-05-05 18:45 | 39.01355 | -21.39000 | 36325 ft | 422 kts | 278° |
| 2026-05-05 18:46 | 39.01387 | -21.46545 | 36328 ft | 422 kts | 278° |
| 2026-05-05 18:46 | 39.01409 | -21.54075 | 36312 ft | 421 kts | 278° |
| 2026-05-05 18:47 | 39.01422 | -21.61539 | 36319 ft | 421 kts | 278° |
| 2026-05-05 18:47 | 39.01431 | -21.69070 | 36326 ft | 421 kts | 278° |
| 2026-05-05 18:48 | 39.01440 | -21.76591 | 36329 ft | 421 kts | 278° |
| 2026-05-05 18:48 | 39.01444 | -21.84110 | 36311 ft | 420 kts | 278° |
| 2026-05-05 18:49 | 39.01436 | -21.91629 | 36314 ft | 420 kts | 278° |
| 2026-05-05 18:49 | 39.01429 | -21.99129 | 36327 ft | 420 kts | 278° |
| 2026-05-05 18:50 | 39.01422 | -22.06583 | 36331 ft | 419 kts | 278° |
| 2026-05-05 18:50 | 39.01412 | -22.14085 | 36337 ft | 419 kts | 277° |
| 2026-05-05 18:51 | 39.01389 | -22.21578 | 36334 ft | 419 kts | 277° |
| 2026-05-05 18:51 | 39.01354 | -22.29073 | 36334 ft | 419 kts | 277° |
| 2026-05-05 18:52 | 39.01319 | -22.36507 | 36331 ft | 419 kts | 277° |
| 2026-05-05 18:52 | 39.01290 | -22.43995 | 36328 ft | 419 kts | 277° |
| 2026-05-05 18:53 | 39.01248 | -22.51485 | 36311 ft | 419 kts | 277° |
| 2026-05-05 18:53 | 39.01197 | -22.58962 | 36314 ft | 419 kts | 277° |
| 2026-05-05 18:54 | 39.01145 | -22.66445 | 36321 ft | 419 kts | 277° |
| 2026-05-05 18:54 | 39.01098 | -22.73937 | 36323 ft | 419 kts | 277° |
| 2026-05-05 18:55 | 39.01041 | -22.81427 | 36293 ft | 419 kts | 278° |
| 2026-05-05 18:55 | 39.00976 | -22.88924 | 36313 ft | 419 kts | 278° |
| 2026-05-05 18:56 | 39.00902 | -22.96425 | 36318 ft | 419 kts | 278° |
| 2026-05-05 18:56 | 39.00830 | -23.03920 | 36342 ft | 419 kts | 278° |
| 2026-05-05 18:57 | 39.00752 | -23.11415 | 36322 ft | 419 kts | 278° |
| 2026-05-05 18:57 | 39.00667 | -23.18843 | 36330 ft | 419 kts | 278° |
| 2026-05-05 18:58 | 39.00582 | -23.26340 | 36332 ft | 419 kts | 278° |
| 2026-05-05 18:58 | 39.00487 | -23.33805 | 36335 ft | 419 kts | 278° |
| 2026-05-05 18:59 | 39.00382 | -23.41290 | 36336 ft | 419 kts | 278° |
| 2026-05-05 18:59 | 39.00309 | -23.46624 | 36316 ft | 419 kts | 279° |
| 2026-05-05 19:00 | 39.00250 | -23.50787 | 36311 ft | 416 kts | 279° |
| 2026-05-05 19:00 | 39.00144 | -23.57684 | 36349 ft | 408 kts | 279° |
| 2026-05-05 19:01 | 39.00043 | -23.65037 | 36345 ft | 417 kts | 279° |
| 2026-05-05 19:01 | 38.99858 | -23.72528 | 36345 ft | 421 kts | 277° |
| 2026-05-05 19:02 | 38.99470 | -23.80067 | 36346 ft | 424 kts | 276° |
| 2026-05-05 19:02 | 38.99034 | -23.87627 | 36345 ft | 424 kts | 276° |
| 2026-05-05 19:03 | 38.98636 | -23.95183 | 36350 ft | 423 kts | 277° |
| 2026-05-05 19:03 | 38.98258 | -24.02736 | 36349 ft | 423 kts | 277° |
| 2026-05-05 19:04 | 38.97875 | -24.10279 | 36324 ft | 423 kts | 277° |
| 2026-05-05 19:04 | 38.97487 | -24.17781 | 36340 ft | 424 kts | 277° |
| 2026-05-05 19:05 | 38.97088 | -24.25334 | 36341 ft | 423 kts | 277° |
| 2026-05-05 19:05 | 38.96681 | -24.32881 | 36350 ft | 423 kts | 277° |
| 2026-05-05 19:06 | 38.96268 | -24.40423 | 36329 ft | 423 kts | 277° |
| 2026-05-05 19:06 | 38.95857 | -24.47968 | 36336 ft | 423 kts | 277° |
| 2026-05-05 19:07 | 38.95440 | -24.55514 | 36342 ft | 424 kts | 277° |
| 2026-05-05 19:07 | 38.95019 | -24.63063 | 36345 ft | 424 kts | 277° |
| 2026-05-05 19:08 | 38.94597 | -24.70619 | 36325 ft | 424 kts | 276° |
| 2026-05-05 19:08 | 38.94381 | -24.74407 | 36145 ft | 426 kts | 276° |
| 2026-05-05 19:08 | 38.94166 | -24.78186 | 35604 ft | 424 kts | 276° |
| 2026-05-05 19:09 | 38.93945 | -24.81948 | 35101 ft | 421 kts | 277° |
| 2026-05-05 19:09 | 38.93721 | -24.85682 | 34602 ft | 417 kts | 277° |
| 2026-05-05 19:09 | 38.93498 | -24.89390 | 34071 ft | 414 kts | 277° |
| 2026-05-05 19:09 | 38.93277 | -24.93064 | 33574 ft | 410 kts | 276° |
| 2026-05-05 19:10 | 38.93063 | -24.96647 | 33093 ft | 406 kts | 276° |
| 2026-05-05 19:10 | 38.92849 | -25.00246 | 32610 ft | 402 kts | 276° |
| 2026-05-05 19:10 | 38.92638 | -25.03809 | 32112 ft | 399 kts | 276° |
| 2026-05-05 19:10 | 38.92429 | -25.07341 | 31672 ft | 395 kts | 276° |
| 2026-05-05 19:11 | 38.92220 | -25.10845 | 31214 ft | 392 kts | 276° |
| 2026-05-05 19:11 | 38.92012 | -25.14320 | 30757 ft | 389 kts | 275° |
| 2026-05-05 19:11 | 38.91805 | -25.17770 | 30291 ft | 386 kts | 275° |
| 2026-05-05 19:11 | 38.91596 | -25.21190 | 29828 ft | 382 kts | 275° |
| 2026-05-05 19:12 | 38.91385 | -25.24574 | 29407 ft | 377 kts | 275° |
| 2026-05-05 19:12 | 38.91175 | -25.27908 | 28988 ft | 373 kts | 275° |
| 2026-05-05 19:12 | 38.90966 | -25.31214 | 28580 ft | 369 kts | 274° |
| 2026-05-05 19:12 | 38.90760 | -25.34477 | 28176 ft | 365 kts | 274° |
| 2026-05-05 19:13 | 38.90558 | -25.37705 | 27769 ft | 361 kts | 274° |
| 2026-05-05 19:13 | 38.90359 | -25.40905 | 27378 ft | 358 kts | 274° |
| 2026-05-05 19:13 | 38.90161 | -25.44075 | 26969 ft | 355 kts | 274° |
| 2026-05-05 19:13 | 38.89963 | -25.47217 | 26566 ft | 351 kts | 273° |
| 2026-05-05 19:14 | 38.89764 | -25.50327 | 26166 ft | 349 kts | 273° |
| 2026-05-05 19:14 | 38.89564 | -25.53423 | 25746 ft | 346 kts | 272° |
| 2026-05-05 19:14 | 38.89366 | -25.56492 | 25336 ft | 344 kts | 272° |
| 2026-05-05 19:14 | 38.89171 | -25.59543 | 24911 ft | 342 kts | 272° |
| 2026-05-05 19:15 | 38.88979 | -25.62579 | 24484 ft | 341 kts | 272° |
| 2026-05-05 19:15 | 38.88783 | -25.65608 | 24048 ft | 340 kts | 271° |
| 2026-05-05 19:15 | 38.88585 | -25.68623 | 23583 ft | 339 kts | 271° |
| 2026-05-05 19:15 | 38.88388 | -25.71589 | 23157 ft | 336 kts | 271° |
| 2026-05-05 19:16 | 38.88187 | -25.74605 | 22737 ft | 333 kts | 271° |
| 2026-05-05 19:16 | 38.87995 | -25.77515 | 22329 ft | 331 kts | 270° |
| 2026-05-05 19:16 | 38.87801 | -25.80444 | 21925 ft | 329 kts | 270° |
| 2026-05-05 19:16 | 38.87609 | -25.83340 | 21524 ft | 327 kts | 270° |
| 2026-05-05 19:17 | 38.87416 | -25.86237 | 21127 ft | 325 kts | 270° |
| 2026-05-05 19:17 | 38.87221 | -25.89119 | 20737 ft | 324 kts | 270° |
| 2026-05-05 19:17 | 38.87025 | -25.91997 | 20341 ft | 323 kts | 270° |
| 2026-05-05 19:17 | 38.86897 | -25.93887 | 20082 ft | 322 kts | 270° |
| 2026-05-05 19:18 | 38.86795 | -25.95419 | 19875 ft | 320 kts | 270° |
| 2026-05-05 19:18 | 38.86779 | -25.95652 | 19848 ft | 320 kts | 270° |
| 2026-05-05 19:18 | 38.86602 | -25.98342 | 19470 ft | 316 kts | 270° |
| 2026-05-05 19:18 | 38.86412 | -26.01151 | 19088 ft | 315 kts | 269° |
| 2026-05-05 19:19 | 38.86219 | -26.03949 | 18709 ft | 315 kts | 269° |
| 2026-05-05 19:19 | 38.86024 | -26.06749 | 18286 ft | 314 kts | 269° |
| 2026-05-05 19:19 | 38.85830 | -26.09531 | 17907 ft | 312 kts | 269° |
| 2026-05-05 19:19 | 38.85638 | -26.12298 | 17532 ft | 310 kts | 269° |
| 2026-05-05 19:20 | 38.85255 | -26.15027 | 17159 ft | 313 kts | 257° |
| 2026-05-05 19:20 | 38.84599 | -26.17695 | 16776 ft | 313 kts | 257° |
| 2026-05-05 19:20 | 38.83946 | -26.20351 | 16396 ft | 312 kts | 257° |
| 2026-05-05 19:20 | 38.83297 | -26.23008 | 16020 ft | 311 kts | 257° |
| 2026-05-05 19:21 | 38.82654 | -26.25643 | 15649 ft | 311 kts | 257° |
| 2026-05-05 19:21 | 38.82004 | -26.28292 | 15271 ft | 310 kts | 256° |
| 2026-05-05 19:21 | 38.81355 | -26.30927 | 14901 ft | 310 kts | 256° |
| 2026-05-05 19:21 | 38.80708 | -26.33558 | 14529 ft | 309 kts | 256° |
| 2026-05-05 19:22 | 38.80064 | -26.36183 | 14157 ft | 309 kts | 256° |
| 2026-05-05 19:22 | 38.79419 | -26.38812 | 13754 ft | 308 kts | 256° |
| 2026-05-05 19:22 | 38.78785 | -26.41390 | 13382 ft | 307 kts | 256° |
| 2026-05-05 19:22 | 38.78145 | -26.43987 | 13009 ft | 305 kts | 256° |
| 2026-05-05 19:23 | 38.77507 | -26.46573 | 12641 ft | 304 kts | 256° |
| 2026-05-05 19:23 | 38.76868 | -26.49156 | 12264 ft | 303 kts | 255° |
| 2026-05-05 19:23 | 38.76232 | -26.51720 | 11878 ft | 302 kts | 255° |
| 2026-05-05 19:23 | 38.75601 | -26.54264 | 11501 ft | 301 kts | 255° |
| 2026-05-05 19:24 | 38.74969 | -26.56813 | 11116 ft | 300 kts | 255° |
| 2026-05-05 19:24 | 38.74342 | -26.59351 | 10807 ft | 297 kts | 255° |
| 2026-05-05 19:24 | 38.73714 | -26.61877 | 10416 ft | 296 kts | 255° |
| 2026-05-05 19:24 | 38.73088 | -26.64383 | 9997 ft | 296 kts | 255° |
| 2026-05-05 19:25 | 38.72462 | -26.66894 | 9585 ft | 295 kts | 255° |
| 2026-05-05 19:25 | 38.71842 | -26.69383 | 9191 ft | 293 kts | 255° |
| 2026-05-05 19:25 | 38.71224 | -26.71856 | 8778 ft | 291 kts | 255° |
| 2026-05-05 19:25 | 38.70610 | -26.74308 | 8336 ft | 289 kts | 254° |
| 2026-05-05 19:26 | 38.69999 | -26.76755 | 7917 ft | 287 kts | 255° |
| 2026-05-05 19:26 | 38.69341 | -26.79154 | 7510 ft | 285 kts | 246° |
| 2026-05-05 19:26 | 38.68316 | -26.81254 | 7379 ft | 274 kts | 232° |
| 2026-05-05 19:26 | 38.67134 | -26.83092 | 7140 ft | 264 kts | 233° |
| 2026-05-05 19:27 | 38.65978 | -26.84903 | 6749 ft | 261 kts | 233° |
| 2026-05-05 19:27 | 38.64837 | -26.86699 | 6304 ft | 259 kts | 233° |
| 2026-05-05 19:27 | 38.63706 | -26.88478 | 5879 ft | 256 kts | 233° |
| 2026-05-05 19:27 | 38.62786 | -26.90356 | 5431 ft | 250 kts | 251° |
| 2026-05-05 19:28 | 38.62507 | -26.92572 | 4721 ft | 252 kts | 277° |
| 2026-05-05 19:28 | 38.62967 | -26.94717 | 4043 ft | 251 kts | 301° |
| 2026-05-05 19:28 | 38.64046 | -26.96422 | 3371 ft | 246 kts | 322° |
| 2026-05-05 19:28 | 38.65344 | -26.97764 | 2844 ft | 239 kts | 323° |
| 2026-05-05 19:29 | 38.66610 | -26.99080 | 2348 ft | 233 kts | 323° |
| 2026-05-05 19:29 | 38.67834 | -27.00361 | 2072 ft | 217 kts | 323° |
| 2026-05-05 19:29 | 38.68952 | -27.01535 | 2018 ft | 201 kts | 323° |
| 2026-05-05 19:29 | 38.70032 | -27.02661 | 1659 ft | 197 kts | 323° |
| 2026-05-05 19:30 | 38.71053 | -27.03726 | 1343 ft | 182 kts | 323° |
| 2026-05-05 19:30 | 38.71975 | -27.04695 | 1094 ft | 162 kts | 323° |
| 2026-05-05 19:30 | 38.72794 | -27.05554 | 863 ft | 146 kts | 323° |
| 2026-05-05 19:30 | 38.73572 | -27.06361 | 672 ft | 143 kts | 324° |
| 2026-05-05 19:31 | 38.74338 | -27.07156 | 432 ft | 142 kts | 323° |
| 2026-05-05 19:31 | 38.75103 | -27.07949 | 275 ft | 140 kts | 323° |
| 2026-05-05 19:31 | 38.75822 | -27.08699 | 183 ft | 120 kts | 323° |
| 2026-05-05 19:31 | 38.76263 | -27.09157 | 179 ft | 39 kts | 320° |
| 2026-05-05 19:32 | 38.76411 | -27.09312 | 179 ft | 24 kts | 320° |
| 2026-05-05 19:32 | 38.76514 | -27.09420 | 179 ft | 11 kts | 321° |
| 2026-05-05 19:32 | 38.76564 | -27.09438 | 179 ft | 8 kts | 33° |
| 2026-05-05 19:32 | 38.76605 | -27.09378 | 178 ft | 9 kts | 51° |
| 2026-05-05 19:33 | 38.76625 | -27.09345 | 178 ft | 5 kts | 51° |
| 2026-05-05 19:33 | 38.76634 | -27.09305 | 178 ft | 7 kts | 110° |
| 2026-05-05 19:33 | 38.76576 | -27.09239 | 178 ft | 13 kts | 142° |
| 2026-05-05 19:33 | 38.76508 | -27.09169 | 178 ft | 12 kts | 141° |
| 2026-05-05 19:34 | 38.76447 | -27.09104 | 178 ft | 11 kts | 141° |
| 2026-05-05 19:34 | 38.76389 | -27.09054 | 178 ft | 10 kts | 162° |
| 2026-05-05 19:34 | 38.76327 | -27.09056 | 178 ft | 8 kts | 185° |
| 2026-05-05 19:35 | 38.76195 | -27.09067 | 180 ft | 12 kts | 171° |
| 2026-05-05 19:35 | 38.76112 | -27.09000 | 180 ft | 16 kts | 141° |
| 2026-05-05 19:35 | 38.76035 | -27.08920 | 181 ft | 13 kts | 141° |
| 2026-05-05 19:35 | 38.75956 | -27.08883 | 181 ft | 15 kts | 183° |
| 2026-05-05 19:36 | 38.75835 | -27.08896 | 179 ft | 16 kts | 185° |
| 2026-05-05 19:36 | 38.75761 | -27.08881 | 178 ft | 10 kts | 150° |
| 2026-05-05 19:36 | 38.75700 | -27.08881 | 178 ft | 8 kts | 182° |
| 2026-05-05 19:36 | 38.75652 | -27.08855 | 178 ft | 7 kts | 142° |
| 2026-05-05 19:37 | 38.75616 | -27.08817 | 178 ft | 6 kts | 141° |
| 2026-05-05 19:37 | 38.75603 | -27.08803 | 178 ft | 0 kts | 141° |